Time;durP1;ratioP1;P1;durP2;ratioP2;P2;SDS_P1;SDS_P2;PMS_P1;PMS_P2;Temp;Humidity;BMP_temperature;BMP_pressure;BME280_temperature;BME280_humidity;BME280_pressure;Samples;Min_cycle;Max_cycle;Signal;HPM_P1;HPM_P2
2021/09/17 00:02:09;;;;;;;52.97;38.33;;;;;;;15.16;100.00;101675.19;10498278;28;20055;-60
2021/09/17 00:07:11;;;;;;;46.17;34.35;;;;;;;15.43;100.00;101667.31;10497789;28;20060;-61
2021/09/17 00:12:14;;;;;;;61.50;43.65;;;;;;;15.36;100.00;101671.28;10498097;28;20048;-59
2021/09/17 00:17:18;;;;;;;56.15;37.15;;;;;;;15.50;100.00;101671.25;10497887;28;20052;-60
2021/09/17 00:22:20;;;;;;;56.63;39.40;;;;;;;15.51;100.00;101664.19;10497273;28;20374;-61
2021/09/17 00:27:23;;;;;;;55.67;41.08;;;;;;;15.49;100.00;101663.44;10497509;28;20044;-60
2021/09/17 00:32:25;;;;;;;57.92;41.92;;;;;;;15.18;100.00;101660.97;10501492;28;20040;-60
2021/09/17 00:37:28;;;;;;;59.72;44.20;;;;;;;15.45;100.00;101661.94;10506379;28;20059;-61
2021/09/17 00:42:35;;;;;;;55.35;40.03;;;;;;;15.67;100.00;101651.69;10504947;28;20052;-59
2021/09/17 00:47:39;;;;;;;57.60;38.85;;;;;;;15.59;100.00;101646.91;10505293;28;20044;-60
2021/09/17 00:52:42;;;;;;;50.83;37.55;;;;;;;15.44;100.00;101639.16;10502901;28;20058;-61
2021/09/17 00:57:45;;;;;;;53.15;33.63;;;;;;;15.38;100.00;101643.00;10503574;28;20052;-59
2021/09/17 01:02:48;;;;;;;53.50;34.50;;;;;;;15.24;100.00;101641.25;10502947;28;20051;-60
2021/09/17 01:07:50;;;;;;;50.33;33.60;;;;;;;15.07;100.00;101644.97;10503745;28;20056;-60
2021/09/17 01:12:54;;;;;;;57.63;39.63;;;;;;;14.66;100.00;101645.75;10503859;28;20053;-60
2021/09/17 01:17:56;;;;;;;60.78;40.35;;;;;;;14.68;100.00;101642.06;10502312;28;20045;-60
2021/09/17 01:22:59;;;;;;;50.83;35.45;;;;;;;14.75;100.00;101641.72;10503377;28;20055;-61
2021/09/17 01:28:01;;;;;;;44.70;35.25;;;;;;;14.64;100.00;101637.06;10503140;28;20052;-61
2021/09/17 01:33:04;;;;;;;52.28;36.60;;;;;;;14.65;100.00;101631.72;10503047;28;20045;-61
2021/09/17 01:38:06;;;;;;;56.72;39.28;;;;;;;14.49;100.00;101625.66;10503008;28;20066;-60
2021/09/17 01:43:09;;;;;;;49.50;34.83;;;;;;;14.67;100.00;101621.06;10501385;28;20048;-61
2021/09/17 01:48:11;;;;;;;47.10;33.88;;;;;;;14.74;100.00;101630.28;10501993;28;20489;-60
2021/09/17 01:53:14;;;;;;;46.33;32.20;;;;;;;14.64;100.00;101618.63;10502539;28;20045;-62
2021/09/17 01:58:16;;;;;;;59.65;36.67;;;;;;;14.81;100.00;101622.84;10502211;28;20052;-60
2021/09/17 02:03:19;;;;;;;53.55;36.88;;;;;;;14.76;100.00;101622.28;10501092;28;20056;-61
2021/09/17 02:08:21;;;;;;;55.80;37.03;;;;;;;14.80;100.00;101616.75;10501686;28;20051;-60
2021/09/17 02:13:24;;;;;;;62.60;38.28;;;;;;;14.65;100.00;101615.91;10501533;28;20044;-59
2021/09/17 02:18:26;;;;;;;78.75;43.13;;;;;;;14.67;100.00;101613.16;10501244;28;20476;-61
2021/09/17 02:23:29;;;;;;;70.50;43.88;;;;;;;14.89;100.00;101617.94;10501794;28;20052;-60
2021/09/17 02:28:31;;;;;;;64.15;41.65;;;;;;;14.75;100.00;101603.00;10500989;28;20049;-60
2021/09/17 02:33:34;;;;;;;64.57;40.75;;;;;;;14.80;100.00;101600.94;10500578;28;20049;-60
2021/09/17 02:38:37;;;;;;;56.58;38.38;;;;;;;14.88;100.00;101603.09;10500479;28;20040;-60
2021/09/17 02:43:39;;;;;;;81.45;44.35;;;;;;;14.70;100.00;101598.97;10500353;28;20047;-61
2021/09/17 02:48:44;;;;;;;59.28;39.10;;;;;;;14.78;100.00;101604.63;10499511;28;20044;-60
2021/09/17 02:53:46;;;;;;;53.63;35.47;;;;;;;15.03;100.00;101599.47;10498526;28;20131;-60
2021/09/17 02:58:49;;;;;;;67.38;42.30;;;;;;;15.00;100.00;101590.94;10500254;28;20052;-59
2021/09/17 03:03:51;;;;;;;59.92;39.92;;;;;;;14.70;100.00;101581.34;10499933;28;20526;-60
2021/09/17 03:08:54;;;;;;;55.70;38.70;;;;;;;14.97;100.00;101584.03;10500014;28;20048;-60
2021/09/17 03:13:56;;;;;;;66.85;44.67;;;;;;;14.82;100.00;101585.84;10498940;28;20055;-60
2021/09/17 03:18:59;;;;;;;78.38;49.58;;;;;;;14.93;100.00;101585.19;10498952;28;20044;-60
2021/09/17 03:24:01;;;;;;;82.70;51.75;;;;;;;14.96;100.00;101570.94;10499490;28;20063;-59
2021/09/17 03:29:04;;;;;;;80.57;53.58;;;;;;;14.81;100.00;101570.13;10498507;28;20063;-60
2021/09/17 03:34:06;;;;;;;80.75;54.03;;;;;;;14.87;100.00;101561.84;10498875;28;20047;-61
2021/09/17 03:39:13;;;;;;;69.07;48.22;;;;;;;15.30;100.00;101564.38;10499030;28;20048;-59
2021/09/17 03:44:16;;;;;;;77.35;48.03;;;;;;;15.16;100.00;101560.00;10498871;28;20041;-62
2021/09/17 03:49:19;;;;;;;89.75;55.50;;;;;;;14.77;100.00;101555.47;10498059;28;20045;-60
2021/09/17 03:54:24;;;;;;;80.85;51.92;;;;;;;15.02;100.00;101562.66;10498123;28;20045;-60
2021/09/17 03:59:27;;;;;;;93.45;57.53;;;;;;;14.70;100.00;101549.72;10497880;28;20493;-60
2021/09/17 04:04:29;;;;;;;75.82;50.40;;;;;;;14.90;100.00;101548.47;10498135;28;20045;-60
2021/09/17 04:09:32;;;;;;;88.07;55.22;;;;;;;14.74;100.00;101551.22;10505892;28;20400;-60
2021/09/17 04:14:34;;;;;;;76.80;52.85;;;;;;;14.94;100.00;101547.31;10506060;28;20411;-61
2021/09/17 04:19:37;;;;;;;81.32;50.88;;;;;;;14.91;100.00;101539.63;10506007;28;20048;-60
2021/09/17 04:24:39;;;;;;;88.18;53.92;;;;;;;14.74;100.00;101545.09;10506778;28;20059;-59
2021/09/17 04:29:41;;;;;;;84.25;53.45;;;;;;;14.94;100.00;101544.69;10505422;28;20040;-60
2021/09/17 04:34:44;;;;;;;75.57;51.53;;;;;;;14.85;100.00;101532.94;10504986;28;20056;-60
2021/09/17 04:39:47;;;;;;;86.32;53.90;;;;;;;14.98;100.00;101533.00;10505133;28;20053;-61
2021/09/17 04:44:49;;;;;;;75.85;50.03;;;;;;;14.91;100.00;101531.72;10504834;28;20476;-60
2021/09/17 04:49:52;;;;;;;78.03;52.97;;;;;;;14.81;100.00;101541.13;10503594;28;20048;-62
2021/09/17 04:55:14;;;;;;;71.57;50.20;;;;;;;14.82;100.00;101553.38;10505691;28;20044;-61
2021/09/17 05:00:17;;;;;;;86.72;57.08;;;;;;;14.48;100.00;101552.81;10504364;28;20055;-60
2021/09/17 05:05:19;;;;;;;76.75;54.15;;;;;;;14.43;100.00;101549.63;10504276;28;20045;-60
2021/09/17 05:10:22;;;;;;;84.13;56.13;;;;;;;14.73;100.00;101551.34;10503670;28;20496;-61
2021/09/17 05:15:24;;;;;;;80.80;55.10;;;;;;;14.61;100.00;101547.69;10503980;28;20063;-61
2021/09/17 05:20:27;;;;;;;76.28;53.38;;;;;;;14.69;100.00;101548.03;10503899;28;20045;-60
2021/09/17 05:25:30;;;;;;;70.13;48.42;;;;;;;14.50;100.00;101541.25;10504028;28;20059;-60
2021/09/17 05:30:32;;;;;;;85.07;58.83;;;;;;;14.44;100.00;101546.03;10503264;28;20048;-60
2021/09/17 05:35:35;;;;;;;70.55;49.28;;;;;;;14.64;100.00;101550.09;10503493;28;20044;-60
2021/09/17 05:40:37;;;;;;;71.55;51.00;;;;;;;14.64;100.00;101563.28;10503173;28;20067;-61
2021/09/17 05:45:40;;;;;;;88.90;56.15;;;;;;;14.65;100.00;101559.72;10502745;28;20048;-61
2021/09/17 05:50:42;;;;;;;70.25;47.13;;;;;;;14.65;100.00;101567.63;10502671;28;20079;-60
2021/09/17 05:55:45;;;;;;;69.63;48.58;;;;;;;14.77;100.00;101574.75;10502839;28;20060;-61
2021/09/17 06:00:48;;;;;;;70.53;48.00;;;;;;;14.95;100.00;101559.56;10502055;28;20052;-60
2021/09/17 06:05:51;;;;;;;69.03;46.55;;;;;;;14.82;100.00;101562.13;10502029;28;20045;-61
2021/09/17 06:10:53;;;;;;;65.25;44.58;;;;;;;14.96;100.00;101558.63;10501328;28;20392;-60
2021/09/17 06:15:56;;;;;;;62.35;41.00;;;;;;;14.97;100.00;101547.13;10501622;28;20051;-61
2021/09/17 06:21:15;;;;;;;57.17;42.17;;;;;;;14.97;100.00;101546.28;10500311;28;20053;-61
2021/09/17 06:26:17;;;;;;;55.00;41.80;;;;;;;15.15;100.00;101546.91;10501071;28;20044;-61
2021/09/17 06:31:20;;;;;;;56.67;41.80;;;;;;;15.23;100.00;101552.50;10500114;28;20106;-60
2021/09/17 06:36:22;;;;;;;59.50;44.38;;;;;;;15.31;100.00;101552.00;10500699;28;20056;-60
2021/09/17 06:41:25;;;;;;;49.38;38.53;;;;;;;15.53;100.00;101549.66;10499042;28;20052;-61
2021/09/17 06:46:27;;;;;;;56.72;44.53;;;;;;;15.61;100.00;101546.50;10500108;28;20485;-61
2021/09/17 06:51:30;;;;;;;56.22;42.67;;;;;;;15.66;100.00;101552.31;10500377;28;20220;-60
2021/09/17 06:56:33;;;;;;;57.58;43.50;;;;;;;15.75;100.00;101550.84;10499902;28;20049;-60
2021/09/17 07:01:35;;;;;;;51.67;43.00;;;;;;;15.89;100.00;101549.97;10499923;28;20044;-60
2021/09/17 07:06:38;;;;;;;62.15;45.00;;;;;;;15.97;100.00;101545.84;10499210;28;20124;-60
2021/09/17 07:11:41;;;;;;;49.03;38.33;;;;;;;16.21;100.00;101546.91;10499125;28;20377;-60
2021/09/17 07:16:44;;;;;;;51.33;39.60;;;;;;;16.57;100.00;101543.47;10499054;28;20056;-60
2021/09/17 07:21:46;;;;;;;44.65;35.83;;;;;;;16.55;100.00;101542.75;10499315;28;20049;-60
2021/09/17 07:26:49;;;;;;;44.03;35.10;;;;;;;16.44;100.00;101540.88;10498803;28;20477;-59
2021/09/17 07:31:51;;;;;;;40.95;34.65;;;;;;;16.67;100.00;101533.09;10498429;28;20084;-61
2021/09/17 07:36:54;;;;;;;44.17;34.55;;;;;;;17.14;100.00;101543.88;10498538;28;20049;-60
2021/09/17 07:41:56;;;;;;;43.10;33.63;;;;;;;17.16;100.00;101544.59;10498394;28;20048;-59
2021/09/17 07:46:59;;;;;;;45.80;37.35;;;;;;;17.44;100.00;101531.00;10498697;28;20048;-60
2021/09/17 07:52:02;;;;;;;43.42;36.03;;;;;;;17.15;100.00;101534.97;10497856;28;20044;-61
2021/09/17 07:57:04;;;;;;;45.13;36.65;;;;;;;17.15;100.00;101527.88;10498192;28;20060;-60
2021/09/17 08:02:07;;;;;;;42.85;36.60;;;;;;;17.30;100.00;101533.84;10497987;28;20044;-61
2021/09/17 08:07:10;;;;;;;43.75;37.17;;;;;;;17.09;100.00;101539.75;10497719;28;20552;-61
2021/09/17 08:12:12;;;;;;;45.58;37.85;;;;;;;17.14;100.00;101543.88;10497645;28;20051;-61
2021/09/17 08:17:15;;;;;;;45.47;37.67;;;;;;;17.61;100.00;101537.66;10497759;28;20048;-61
2021/09/17 08:22:17;;;;;;;47.67;38.63;;;;;;;17.99;100.00;101538.41;10497759;28;20044;-61
2021/09/17 08:27:20;;;;;;;34.90;29.63;;;;;;;17.93;93.08;101531.75;10497531;28;20056;-61
2021/09/17 08:32:22;;;;;;;35.42;31.00;;;;;;;18.34;92.26;101529.50;10496801;28;20048;-60
2021/09/17 08:37:25;;;;;;;30.40;27.08;;;;;;;19.03;91.66;101526.66;10497330;28;20048;-60
2021/09/17 08:42:28;;;;;;;22.95;20.42;;;;;;;18.98;84.58;101533.28;10497214;28;20048;-61
2021/09/17 08:47:31;;;;;;;23.67;20.35;;;;;;;20.47;83.98;101525.19;10495807;28;20393;-60
2021/09/17 08:52:33;;;;;;;26.75;22.92;;;;;;;20.75;84.32;101529.78;10499787;28;20048;-60
2021/09/17 08:57:37;;;;;;;25.75;21.35;;;;;;;20.47;80.05;101526.03;10503556;28;20049;-61
2021/09/17 09:02:47;;;;;;;23.50;21.10;;;;;;;20.63;76.88;101524.69;10504360;28;20052;-61
2021/09/17 09:07:50;;;;;;;23.97;19.93;;;;;;;21.40;77.75;101533.75;10504799;28;20094;-61
2021/09/17 09:12:56;;;;;;;23.52;20.58;;;;;;;20.28;77.40;101524.16;10503880;28;20048;-61
2021/09/17 09:18:18;;;;;;;22.58;19.48;;;;;;;21.12;80.06;101530.97;10503015;28;20056;-60
2021/09/17 09:23:28;;;;;;;26.13;22.73;;;;;;;20.26;76.47;101527.91;10504087;28;20411;-60
2021/09/17 09:28:44;;;;;;;26.13;21.17;;;;;;;20.53;78.38;101522.00;10503009;28;20044;-60
2021/09/17 09:33:52;;;;;;;31.45;25.70;;;;;;;20.02;79.78;101523.75;10503228;28;20040;-61
2021/09/17 09:38:55;;;;;;;25.88;21.33;;;;;;;20.35;80.33;101530.59;10503401;28;20041;-60
2021/09/17 09:44:01;;;;;;;29.88;25.30;;;;;;;20.48;80.76;101526.91;10502992;28;20057;-61
2021/09/17 09:49:06;;;;;;;25.17;21.88;;;;;;;20.59;80.05;101526.75;10503510;28;20041;-60
2021/09/17 09:54:10;;;;;;;30.80;26.50;;;;;;;20.25;78.18;101521.75;10502395;28;20484;-60
2021/09/17 09:59:14;;;;;;;32.03;25.55;;;;;;;20.46;79.77;101518.19;10502189;28;20049;-61
2021/09/17 10:04:17;;;;;;;30.90;25.80;;;;;;;20.33;81.08;101519.28;10501454;28;20091;-61
2021/09/17 10:09:20;;;;;;;31.30;25.23;;;;;;;20.27;79.90;101518.97;10500496;28;20048;-62
2021/09/17 10:14:22;;;;;;;30.15;26.33;;;;;;;20.60;79.44;101510.66;10500749;28;20053;-62
2021/09/17 10:19:25;;;;;;;34.35;28.52;;;;;;;20.02;82.84;101519.28;10501050;28;20538;-60
2021/09/17 10:24:30;;;;;;;33.35;27.77;;;;;;;20.47;81.71;101517.22;10501574;28;20056;-60
2021/09/17 10:29:43;;;;;;;33.58;26.20;;;;;;;20.78;82.67;101523.34;10501461;28;20052;-60
2021/09/17 10:35:00;;;;;;;32.58;28.17;;;;;;;20.68;78.15;101525.13;10501159;28;20040;-60
2021/09/17 10:40:07;;;;;;;34.70;29.95;;;;;;;21.36;77.08;101533.19;10500494;28;20531;-61
2021/09/17 10:45:10;;;;;;;36.15;31.42;;;;;;;20.98;79.96;101529.56;10500389;28;20396;-59
2021/09/17 10:50:14;;;;;;;38.80;30.80;;;;;;;21.14;76.52;101523.66;10499962;28;20059;-61
2021/09/17 10:55:44;;;;;;;34.70;30.60;;;;;;;21.52;75.88;101522.03;10500022;28;20392;-61
2021/09/17 11:01:00;;;;;;;33.88;30.27;;;;;;;21.14;77.24;101519.19;10499646;28;20056;-60
2021/09/17 11:06:30;;;;;;;38.58;31.88;;;;;;;20.96;78.43;101515.53;10500087;28;20068;-61
2021/09/17 11:11:44;;;;;;;38.17;30.80;;;;;;;21.12;79.83;101515.81;10499171;28;20072;-61
2021/09/17 11:16:48;;;;;;;35.95;30.65;;;;;;;21.40;78.92;101515.09;10498489;28;20041;-61
2021/09/17 11:21:51;;;;;;;37.55;31.83;;;;;;;21.34;76.26;101506.69;10498826;28;20049;-62
2021/09/17 11:26:56;;;;;;;33.53;27.67;;;;;;;21.46;73.65;101503.91;10499345;28;20072;-60
2021/09/17 11:32:01;;;;;;;30.55;26.63;;;;;;;22.29;73.41;101505.94;10498945;28;20052;-62
2021/09/17 11:37:05;;;;;;;32.67;28.20;;;;;;;22.44;71.94;101504.47;10498509;28;20499;-61
2021/09/17 11:42:13;;;;;;;36.70;30.90;;;;;;;22.29;68.34;101501.44;10498191;28;20492;-61
2021/09/17 11:47:28;;;;;;;30.23;26.48;;;;;;;23.23;67.73;101504.78;10498349;28;20476;-60
2021/09/17 11:52:39;;;;;;;31.92;27.02;;;;;;;23.66;68.99;101487.09;10498335;28;20048;-61
2021/09/17 11:57:42;;;;;;;;;;;;;;;23.83;64.82;101486.22;10498846;28;20059;-62
2021/09/17 12:02:47;;;;;;;28.05;25.00;;;;;;;23.92;63.50;101484.41;10497920;28;20291;-60
2021/09/17 12:07:51;;;;;;;29.10;25.92;;;;;;;23.67;62.53;101475.38;10496597;28;20511;-61
2021/09/17 12:13:00;;;;;;;29.67;23.25;;;;;;;24.30;60.78;101474.22;10497617;28;20408;-61
2021/09/17 12:18:04;;;;;;;26.80;24.10;;;;;;;25.05;62.15;101476.09;10497411;28;20049;-60
2021/09/17 12:23:07;;;;;;;25.27;22.70;;;;;;;25.13;64.00;101473.41;10497527;28;20052;-60
2021/09/17 12:28:13;;;;;;;25.15;22.52;;;;;;;23.27;61.95;101482.97;10501765;28;20055;-59
2021/09/17 12:33:23;;;;;;;26.08;22.67;;;;;;;24.11;63.08;101472.66;10506227;28;20059;-59
2021/09/17 12:38:26;;;;;;;;;;;;;;;24.37;61.03;101463.72;10506249;28;20053;-60
2021/09/17 12:43:32;;;;;;;29.58;26.58;;;;;;;24.14;60.55;101464.31;10505175;28;20276;-60
2021/09/17 12:48:37;;;;;;;26.73;22.90;;;;;;;25.54;60.22;101464.53;10504840;28;20508;-60
2021/09/17 12:53:41;;;;;;;23.98;19.65;;;;;;;26.72;52.35;101454.84;10504907;28;20051;-59
2021/09/17 12:58:43;;;;;;;23.85;19.00;;;;;;;26.43;53.86;101453.66;10504306;28;20059;-59
2021/09/17 13:03:47;;;;;;;22.98;19.73;;;;;;;25.48;55.04;101449.94;10504810;28;20051;-60
2021/09/17 13:08:50;;;;;;;21.42;19.13;;;;;;;24.78;58.73;101463.81;10504165;28;20048;-60
2021/09/17 13:13:53;;;;;;;19.65;17.27;;;;;;;23.66;59.59;101455.00;10504221;28;20052;-60
2021/09/17 13:18:55;;;;;;;23.55;19.58;;;;;;;23.31;61.34;101454.94;10503819;28;20047;-60
2021/09/17 13:23:58;;;;;;;28.15;22.10;;;;;;;22.20;63.56;101449.81;10504325;28;20052;-60
2021/09/17 13:29:00;;;;;;;21.77;18.98;;;;;;;24.65;57.61;101443.72;10503820;28;20059;-59
2021/09/17 13:34:03;;;;;;;20.25;16.30;;;;;;;23.28;58.82;101452.56;10504042;28;20045;-60
2021/09/17 13:39:05;;;;;;;15.15;13.65;;;;;;;23.03;61.09;101454.19;10503021;28;20044;-60
2021/09/17 13:44:08;;;;;;;14.32;12.85;;;;;;;23.02;59.92;101449.03;10503034;28;20048;-59
2021/09/17 13:49:10;;;;;;;14.90;11.77;;;;;;;24.04;55.59;101436.84;10503134;28;20059;-59
2021/09/17 13:54:12;;;;;;;12.23;10.65;;;;;;;25.18;53.58;101436.22;10502474;28;20048;-59
2021/09/17 13:59:15;;;;;;;10.57;9.38;;;;;;;24.03;55.85;101432.50;10502391;28;20060;-59
2021/09/17 14:04:17;;;;;;;13.93;9.43;;;;;;;23.34;53.71;101425.25;10501989;28;20519;-60
2021/09/17 14:09:20;;;;;;;13.77;11.07;;;;;;;22.87;58.16;101432.69;10500829;28;20135;-59
2021/09/17 14:14:23;;;;;;;14.13;11.88;;;;;;;22.83;57.51;101429.50;10501699;28;20048;-59
2021/09/17 14:19:26;;;;;;;15.60;11.25;;;;;;;22.84;59.60;101416.97;10501420;28;20049;-60
2021/09/17 14:24:29;;;;;;;12.95;10.68;;;;;;;22.77;63.02;101414.09;10501156;28;20516;-60
2021/09/17 14:29:32;;;;;;;11.35;10.15;;;;;;;23.08;61.88;101411.03;10501410;28;20055;-59
2021/09/17 14:34:34;;;;;;;13.38;10.95;;;;;;;22.83;59.98;101408.16;10501129;28;20051;-59
2021/09/17 14:39:37;;;;;;;16.13;9.98;;;;;;;22.50;62.06;101407.81;10500233;28;20052;-60
2021/09/17 14:44:39;;;;;;;11.30;9.27;;;;;;;22.27;65.98;101404.72;10500446;28;20075;-60
2021/09/17 14:49:42;;;;;;;11.82;8.95;;;;;;;23.43;58.54;101403.94;10500067;28;20048;-60
2021/09/17 14:54:45;;;;;;;11.57;8.43;;;;;;;23.66;57.02;101402.38;10499860;28;20504;-60
2021/09/17 14:59:47;;;;;;;11.02;7.53;;;;;;;25.27;53.90;101396.03;10500039;28;20048;-59
2021/09/17 15:04:52;;;;;;;10.00;6.47;;;;;;;25.83;52.57;101388.84;10499681;28;20053;-61
2021/09/17 15:09:54;;;;;;;8.85;7.25;;;;;;;23.31;57.02;101395.34;10500704;28;20053;-59
2021/09/17 15:14:57;;;;;;;10.10;6.85;;;;;;;23.26;56.17;101382.44;10499635;28;20535;-59
2021/09/17 15:19:59;;;;;;;5.97;4.68;;;;;;;22.87;56.42;101393.47;10499067;28;20055;-60
2021/09/17 15:25:02;;;;;;;8.20;5.60;;;;;;;22.40;60.08;101397.22;10499962;28;20056;-59
2021/09/17 15:30:06;;;;;;;6.63;4.78;;;;;;;22.03;61.86;101397.28;10498918;28;20076;-60
2021/09/17 15:35:09;;;;;;;8.45;5.10;;;;;;;22.44;60.88;101398.59;10498496;28;20427;-59
2021/09/17 15:40:12;;;;;;;6.15;5.38;;;;;;;21.85;63.19;101399.88;10498410;28;20048;-60
2021/09/17 15:45:14;;;;;;;10.00;5.90;;;;;;;21.76;66.03;101403.44;10498765;28;20048;-60
2021/09/17 15:50:17;;;;;;;9.00;5.72;;;;;;;21.05;68.66;101404.72;10498204;28;20045;-60
2021/09/17 15:55:20;;;;;;;10.23;6.30;;;;;;;21.03;70.20;101401.34;10498165;28;20500;-59
2021/09/17 16:00:23;;;;;;;11.15;6.07;;;;;;;20.85;70.14;101403.91;10497290;28;20507;-60
2021/09/17 16:05:26;;;;;;;9.57;7.25;;;;;;;20.86;67.79;101397.56;10497629;28;20158;-59
2021/09/17 16:10:29;;;;;;;6.07;5.35;;;;;;;21.02;72.37;101400.50;10497904;28;20060;-60
2021/09/17 16:15:32;;;;;;;6.55;4.68;;;;;;;20.90;76.26;101399.00;10498345;28;20056;-59
2021/09/17 16:20:35;;;;;;;10.10;5.55;;;;;;;20.33;85.01;101404.94;10497633;28;20048;-59
2021/09/17 16:25:38;;;;;;;7.05;4.28;;;;;;;20.55;85.52;101397.69;10497575;28;20058;-59
2021/09/17 16:30:40;;;;;;;5.25;4.38;;;;;;;20.32;87.87;101413.03;10497297;28;20051;-59
2021/09/17 16:35:42;;;;;;;13.02;4.70;;;;;;;20.43;87.37;101404.94;10497294;28;20527;-60
2021/09/17 16:40:45;;;;;;;6.53;4.38;;;;;;;20.05;89.42;101406.53;10497128;28;20044;-59
2021/09/17 16:45:49;;;;;;;5.78;4.40;;;;;;;19.85;93.13;101411.78;10496995;28;20412;-60
2021/09/17 16:50:51;;;;;;;6.43;4.63;;;;;;;19.86;92.64;101410.81;10497459;28;20071;-60
2021/09/17 16:55:54;;;;;;;5.55;4.97;;;;;;;19.69;94.51;101416.72;10495553;28;20378;-60
2021/09/17 17:00:56;;;;;;;7.20;5.18;;;;;;;19.58;94.87;101414.13;10496529;28;20492;-60
2021/09/17 17:06:01;;;;;;;6.05;5.25;;;;;;;19.41;93.35;101418.25;10496914;28;20055;-59
2021/09/17 17:11:04;;;;;;;11.25;7.07;;;;;;;19.59;87.62;101413.19;10496473;28;20492;-60
2021/09/17 17:16:08;;;;;;;10.80;7.80;;;;;;;19.45;87.99;101409.88;10503328;28;20403;-59
2021/09/17 17:21:10;;;;;;;9.73;8.65;;;;;;;19.34;86.57;101412.59;10503981;28;20055;-58
2021/09/17 17:26:15;;;;;;;13.98;10.20;;;;;;;19.50;85.88;101409.47;10503808;28;20056;-60
2021/09/17 17:31:18;;;;;;;9.82;8.20;;;;;;;19.26;88.54;101412.41;10503443;28;20057;-60
2021/09/17 17:36:20;;;;;;;11.15;9.57;;;;;;;19.04;90.59;101413.38;10503644;28;20089;-60
2021/09/17 17:41:23;;;;;;;11.63;9.77;;;;;;;19.14;90.19;101411.63;10503610;28;20060;-59
2021/09/17 17:46:26;;;;;;;16.10;13.07;;;;;;;19.11;90.49;101415.41;10502704;28;20396;-59
2021/09/17 17:51:30;;;;;;;24.35;18.00;;;;;;;18.83;91.97;101424.81;10502882;28;20044;-60
2021/09/17 17:56:32;;;;;;;20.70;17.15;;;;;;;18.98;93.04;101425.34;10503226;28;20059;-60
2021/09/17 18:01:35;;;;;;;25.58;18.90;;;;;;;18.72;95.40;101430.94;10502379;28;20060;-59
2021/09/17 18:06:37;;;;;;;29.63;21.67;;;;;;;18.79;94.69;101427.81;10502155;28;20123;-60
2021/09/17 18:11:40;;;;;;;28.88;21.05;;;;;;;18.65;97.40;101432.44;10501898;28;20044;-60
2021/09/17 18:16:43;;;;;;;21.42;17.23;;;;;;;18.29;99.71;101431.81;10500618;28;20055;-59
2021/09/17 18:21:46;;;;;;;27.55;20.92;;;;;;;18.22;100.00;101440.34;10501854;28;20048;-59
2021/09/17 18:26:48;;;;;;;28.40;22.05;;;;;;;17.92;100.00;101444.44;10500542;28;20044;-60
2021/09/17 18:31:51;;;;;;;28.95;17.10;;;;;;;17.93;100.00;101452.28;10501079;28;20045;-60
2021/09/17 18:36:54;;;;;;;19.85;14.45;;;;;;;17.92;100.00;101455.91;10500675;28;20064;-60
2021/09/17 18:41:57;;;;;;;18.58;13.20;;;;;;;17.69;100.00;101451.53;10500623;28;20488;-59
2021/09/17 18:46:59;;;;;;;21.70;16.63;;;;;;;17.50;100.00;101458.22;10500687;28;20052;-59
2021/09/17 18:52:02;;;;;;;28.50;15.88;;;;;;;17.48;100.00;101460.13;10500171;28;20044;-59
2021/09/17 18:57:05;;;;;;;16.98;13.38;;;;;;;17.50;100.00;101468.81;10499992;28;20052;-60
2021/09/17 19:02:07;;;;;;;19.67;15.35;;;;;;;17.23;100.00;101471.72;10499824;28;20044;-60
2021/09/17 19:07:10;;;;;;;23.38;16.08;;;;;;;17.23;100.00;101477.88;10499659;28;20124;-59
2021/09/17 19:12:12;;;;;;;29.35;20.25;;;;;;;16.92;100.00;101487.25;10499474;28;20377;-58
2021/09/17 19:17:15;;;;;;;20.30;17.48;;;;;;;16.98;100.00;101484.16;10499330;28;20045;-59
2021/09/17 19:22:17;;;;;;;29.35;20.27;;;;;;;16.83;100.00;101490.53;10498911;28;20048;-59
2021/09/17 19:27:19;;;;;;;38.20;24.50;;;;;;;16.58;100.00;101494.13;10498770;28;20052;-60
2021/09/17 19:32:23;;;;;;;31.73;24.27;;;;;;;16.58;100.00;101488.81;10499232;28;20404;-59
2021/09/17 19:37:26;;;;;;;34.20;24.10;;;;;;;16.39;100.00;101500.72;10498511;28;20044;-59
2021/09/17 19:42:28;;;;;;;39.80;26.83;;;;;;;16.38;100.00;101504.28;10498640;28;20049;-59
2021/09/17 19:47:31;;;;;;;42.08;30.13;;;;;;;16.09;100.00;101501.91;10498890;28;20044;-59
2021/09/17 19:52:34;;;;;;;45.90;30.55;;;;;;;16.14;100.00;101509.50;10498383;28;20055;-60
2021/09/17 19:57:37;;;;;;;39.75;28.27;;;;;;;16.10;100.00;101500.94;10498707;28;20072;-59
2021/09/17 20:02:40;;;;;;;37.80;28.50;;;;;;;16.05;100.00;101510.13;10498348;28;20048;-61
2021/09/17 20:07:44;;;;;;;36.80;28.52;;;;;;;15.98;100.00;101507.06;10497689;28;20086;-60
2021/09/17 20:12:47;;;;;;;47.88;33.28;;;;;;;16.01;100.00;101506.88;10497728;28;20427;-60
2021/09/17 20:17:49;;;;;;;55.20;38.78;;;;;;;15.84;100.00;101518.59;10497797;28;20049;-60
2021/09/17 20:22:52;;;;;;;52.35;36.55;;;;;;;15.86;100.00;101518.50;10497309;28;20048;-59
2021/09/17 20:27:54;;;;;;;53.50;37.95;;;;;;;15.83;100.00;101516.88;10495746;28;20047;-59
2021/09/17 20:32:57;;;;;;;55.15;38.95;;;;;;;15.81;100.00;101521.44;10495009;28;20045;-60
2021/09/17 20:38:01;;;;;;;64.40;38.70;;;;;;;15.79;100.00;101510.13;10495360;28;20040;-59
2021/09/17 20:43:03;;;;;;;57.25;39.95;;;;;;;15.70;100.00;101524.78;10494199;28;20405;-59
2021/09/17 20:48:06;;;;;;;62.95;42.55;;;;;;;15.62;100.00;101524.44;10497227;28;20040;-59
2021/09/17 20:53:08;;;;;;;61.10;41.92;;;;;;;15.48;100.00;101529.78;10502616;28;20071;-60
2021/09/17 20:58:11;;;;;;;62.45;41.72;;;;;;;15.50;100.00;101541.94;10502510;28;20052;-60
2021/09/17 21:03:13;;;;;;;62.03;43.10;;;;;;;15.39;100.00;101539.16;10502297;28;20052;-59
2021/09/17 21:08:18;;;;;;;66.00;44.30;;;;;;;15.44;100.00;101544.97;10502411;28;20049;-59
2021/09/17 21:13:20;;;;;;;62.92;43.13;;;;;;;15.37;100.00;101551.63;10502152;28;20052;-59
2021/09/17 21:18:23;;;;;;;85.07;52.53;;;;;;;15.25;100.00;101545.34;10501532;28;20045;-59
2021/09/17 21:23:25;;;;;;;61.53;44.25;;;;;;;15.22;100.00;101550.81;10463664;28;1113975;-60
2021/09/17 21:28:27;;;;;;;63.08;42.95;;;;;;;15.18;100.00;101546.69;10503520;28;20045;-59
2021/09/17 21:33:30;;;;;;;71.53;46.25;;;;;;;15.08;100.00;101546.44;10503898;28;20055;-59
2021/09/17 21:38:32;;;;;;;63.70;43.17;;;;;;;15.15;100.00;101544.28;10503266;28;20051;-60
2021/09/17 21:43:35;;;;;;;71.60;45.00;;;;;;;15.04;100.00;101540.50;10502034;28;20059;-59
2021/09/17 21:48:37;;;;;;;68.05;45.38;;;;;;;14.97;100.00;101552.41;10502945;28;20048;-60
2021/09/17 21:53:39;;;;;;;71.43;45.45;;;;;;;14.96;100.00;101549.84;10502807;28;20048;-60
2021/09/17 21:58:42;;;;;;;70.57;44.55;;;;;;;14.90;100.00;101547.63;10502160;28;20048;-59
2021/09/17 22:03:45;;;;;;;70.57;45.88;;;;;;;14.83;100.00;101545.38;10502115;28;20056;-59
2021/09/17 22:08:47;;;;;;;70.55;43.88;;;;;;;14.82;100.00;101543.66;10501997;28;20132;-59
2021/09/17 22:13:49;;;;;;;67.38;42.45;;;;;;;14.74;100.00;101543.31;10501894;28;20052;-60
2021/09/17 22:18:52;;;;;;;73.30;45.25;;;;;;;14.75;100.00;101544.19;10501500;28;20044;-59
2021/09/17 22:23:54;;;;;;;57.75;38.75;;;;;;;14.77;100.00;101545.75;10501943;28;20044;-60
2021/09/17 22:28:56;;;;;;;65.10;42.45;;;;;;;14.74;100.00;101553.84;10501045;28;20052;-59
2021/09/17 22:33:59;;;;;;;60.38;40.42;;;;;;;14.70;100.00;101562.06;10501094;28;20060;-59
2021/09/17 22:39:01;;;;;;;66.28;43.10;;;;;;;14.61;100.00;101558.22;10500425;28;20040;-59